Time;durP1;ratioP1;P1;durP2;ratioP2;P2;SDS_P1;SDS_P2;PMS_P1;PMS_P2;Temp;Humidity;BMP_temperature;BMP_pressure;BME280_temperature;BME280_humidity;BME280_pressure;Samples;Min_cycle;Max_cycle;Signal;HPM_P1;HPM_P2
2022/11/29 00:01:29;;;;;;;;;48.75;40.25;;;;;-3.17;93.83;98862.75;4951081;28;101880;-71
2022/11/29 00:03:56;;;;;;;;;45.67;37.67;;;;;-3.16;94.21;98872.38;4964962;28;109448;-71
2022/11/29 00:06:27;;;;;;;;;33.00;23.67;;;;;-3.13;92.26;98868.66;4961125;28;101967;-69
2022/11/29 00:08:55;;;;;;;;;28.00;23.33;;;;;-3.14;92.24;98873.09;4940810;28;104859;-71
2022/11/29 00:14:18;;;;;;;;;78.00;56.00;;;;;-3.40;90.08;98853.78;4961224;28;107820;-71
2022/11/29 00:16:53;;;;;;;;;63.75;47.75;;;;;-3.42;90.71;98866.25;4965075;28;101797;-70
2022/11/29 00:19:20;;;;;;;;;79.25;61.00;;;;;-3.65;90.44;98835.34;4965348;28;101866;-71
2022/11/29 00:21:47;;;;;;;;;79.50;60.75;;;;;-3.60;92.12;98852.53;4965526;28;102535;-70
2022/11/29 00:24:14;;;;;;;;;65.25;45.50;;;;;-3.63;91.63;98860.69;4967423;28;103512;-70
2022/11/29 00:26:41;;;;;;;;;79.25;60.50;;;;;-3.68;91.65;98846.94;4963549;28;102416;-71
2022/11/29 00:29:11;;;;;;;;;66.50;49.00;;;;;-3.65;91.64;98854.66;4962783;28;101623;-71
2022/11/29 00:31:39;;;;;;;;;91.75;64.25;;;;;-3.78;92.38;98837.13;4957701;28;101831;-71
2022/11/29 00:34:07;;;;;;;;;81.75;56.00;;;;;-3.70;92.87;98861.22;4946513;28;103366;-71
2022/11/29 00:36:34;;;;;;;;;61.50;39.25;;;;;-3.62;92.41;98859.75;4970765;28;102119;-71
2022/11/29 00:39:03;;;;;;;;;60.50;46.25;;;;;-3.63;91.15;98858.03;4974710;28;101909;-71
2022/11/29 00:41:31;;;;;;;;;40.00;31.67;;;;;-3.60;92.01;98862.25;4968017;28;101891;-70
2022/11/29 00:43:58;;;;;;;;;86.75;65.75;;;;;-3.74;91.62;98854.47;4965861;28;103350;-70
2022/11/29 00:46:25;;;;;;;;;79.75;55.75;;;;;-3.73;92.17;98856.97;4967585;28;101878;-71
2022/11/29 00:48:52;;;;;;;;;79.25;60.50;;;;;-3.77;93.13;98855.50;4963220;28;102080;-71
2022/11/29 00:51:19;;;;;;;;;83.75;61.50;;;;;-3.77;93.35;98855.50;4965829;28;103536;-70
2022/11/29 00:53:46;;;;;;;;;84.25;66.25;;;;;-3.70;94.40;98858.59;4968647;28;103342;-70
2022/11/29 00:56:13;;;;;;;;;75.00;53.75;;;;;-3.66;94.61;98854.78;4962507;28;102015;-69
2022/11/29 00:58:42;;;;;;;;;60.25;43.75;;;;;-3.61;93.59;98860.59;4968892;28;102692;-71
2022/11/29 01:01:10;;;;;;;;;48.25;37.25;;;;;-3.62;92.23;98857.09;4967974;28;104555;-68
2022/11/29 01:03:37;;;;;;;;;78.50;59.75;;;;;-3.75;91.99;98855.41;4959053;28;103610;-68
2022/11/29 01:06:10;;;;;;;;;101.25;68.00;;;;;-3.80;92.79;98855.72;4964395;28;101954;-69
2022/11/29 01:08:38;;;;;;;;;95.75;68.50;;;;;-3.78;93.03;98853.81;4965719;28;101837;-69
2022/11/29 01:11:09;;;;;;;;;80.75;61.00;;;;;-3.82;94.10;98840.91;4969150;28;101665;-69
2022/11/29 01:13:37;;;;;;;;;103.75;72.25;;;;;-3.87;92.75;98848.34;4968874;28;103695;-69
2022/11/29 01:16:04;;;;;;;;;102.50;75.25;;;;;-4.13;92.74;98816.63;4959464;28;101951;-69
2022/11/29 01:18:31;;;;;;;;;86.75;66.25;;;;;-3.84;93.17;98854.25;4945105;28;101589;-69
2022/11/29 01:21:01;;;;;;;;;70.75;52.00;;;;;-3.77;93.39;98850.22;4970023;28;101719;-69
2022/11/29 01:23:29;;;;;;;;;58.25;45.50;;;;;-3.73;92.46;98856.97;4963981;28;107758;-68
2022/11/29 01:26:03;;;;;;;;;52.50;37.25;;;;;-3.75;91.45;98842.19;4965457;28;101851;-69
2022/11/29 01:28:30;;;;;;;;;92.00;68.00;;;;;-3.85;92.26;98847.25;4968463;28;101524;-69
2022/11/29 01:30:57;;;;;;;;;91.50;65.75;;;;;-3.83;93.03;98840.09;4966936;28;102619;-69
2022/11/29 01:33:24;;;;;;;;;85.50;61.00;;;;;-3.86;93.40;98828.88;4966861;28;106088;-68
2022/11/29 01:35:53;;;;;;;;;99.25;73.50;;;;;-4.10;92.81;98815.56;4968918;28;102638;-69
2022/11/29 01:38:20;;;;;;;;;93.00;70.00;;;;;-4.08;93.03;98829.50;4965962;28;101607;-68
2022/11/29 01:40:57;;;;;;;;;93.75;72.25;;;;;-4.13;92.89;98821.88;4959930;28;102015;-70
2022/11/29 01:43:25;;;;;;;;;97.25;74.00;;;;;-4.13;93.32;98827.16;4960810;28;107942;-69
2022/11/29 01:45:52;;;;;;;;;96.00;69.50;;;;;-4.04;92.76;98820.41;4966676;28;102118;-69
2022/11/29 01:48:25;;;;;;;;;88.50;66.75;;;;;-4.34;93.63;98761.81;4950225;28;102053;-69
2022/11/29 01:50:54;;;;;;;;;101.50;74.50;;;;;-4.09;91.94;98820.72;4960772;28;101639;-69
2022/11/29 01:53:21;;;;;;;;;85.75;65.50;;;;;-4.03;92.68;98824.75;4968970;28;103356;-69
2022/11/29 01:55:52;;;;;;;;;80.00;60.50;;;;;-4.03;92.44;98822.13;4962074;28;101903;-69
2022/11/29 01:58:20;;;;;;;;;88.00;64.00;;;;;-4.07;92.07;98824.13;4967660;28;101423;-69
2022/11/29 02:00:48;;;;;;;;;79.50;60.50;;;;;-4.10;93.53;98805.84;4964312;28;102160;-69
2022/11/29 02:03:16;;;;;;;;;85.00;63.25;;;;;-3.99;94.36;98815.66;4966068;28;102271;-69
2022/11/29 02:05:49;;;;;;;;;86.75;66.50;;;;;-3.94;94.59;98821.50;4941440;28;101926;-68
2022/11/29 02:08:45;;;;;;;;;90.75;64.50;;;;;-3.89;94.80;98819.38;4966156;28;103310;-69
2022/11/29 02:12:12;;;;;;;;;83.00;63.75;;;;;-3.80;95.67;98823.19;4958074;28;101663;-68
2022/11/29 02:15:17;;;;;;;;;73.00;53.50;;;;;-3.74;95.83;98831.50;4897792;28;108803;-69
2022/11/29 02:18:17;;;;;;;;;51.25;39.75;;;;;-3.70;93.58;98843.56;4956658;28;101962;-69
2022/11/29 02:21:20;;;;;;;;;76.00;51.75;;;;;-3.84;92.48;98837.53;4927145;28;101508;-69
2022/11/29 02:24:16;;;;;;;;;69.25;49.75;;;;;-3.81;92.96;98832.03;4952338;28;101723;-68
2022/11/29 02:27:10;;;;;;;;;43.75;36.75;;;;;-3.74;93.01;98830.69;4962628;28;106622;-68
2022/11/29 02:29:56;;;;;;;;;30.67;25.33;;;;;-3.73;92.87;98840.28;4963200;28;102076;-68
2022/11/29 02:32:53;;;;;;;;;29.33;27.67;;;;;-3.70;92.95;98835.66;4966060;28;101756;-68
2022/11/29 02:35:48;;;;;;;;;20.67;15.33;;;;;-3.68;91.17;98833.72;4952112;28;103797;-69
2022/11/29 02:38:51;;;;;;;;;13.67;13.67;;;;;-3.69;90.98;98839.97;4966284;28;107663;-68
2022/11/29 02:41:55;;;;;;;;;22.00;11.67;;;;;-3.72;89.94;98834.91;4956741;28;102015;-68
2022/11/29 02:44:40;;;;;;;;;33.67;22.00;;;;;-3.85;89.10;98831.41;4956860;28;101673;-68
2022/11/29 02:47:25;;;;;;;;;18.00;13.67;;;;;-3.85;89.31;98841.13;4967646;28;102108;-68
2022/11/29 02:50:13;;;;;;;;;13.67;11.00;;;;;-3.87;88.86;98845.69;4959156;28;103458;-69
2022/11/29 02:52:53;;;;;;;;;14.67;12.33;;;;;-3.89;89.23;98856.34;4967801;28;102916;-72
2022/11/29 02:55:37;;;;;;;;;13.33;11.33;;;;;-3.95;88.81;98848.84;4960681;28;101613;-71
2022/11/29 02:58:28;;;;;;;;;14.33;14.33;;;;;-4.04;87.29;98849.47;4964041;28;101976;-71
2022/11/29 03:01:36;;;;;;;;;53.75;40.50;;;;;-4.21;90.55;98863.81;4962169;28;107741;-72
2022/11/29 03:04:17;;;;;;;;;55.50;48.00;;;;;-4.20;91.15;98862.03;4956561;28;102368;-72
2022/11/29 03:07:01;;;;;;;;;47.00;39.00;;;;;-4.15;91.23;98866.03;4963407;28;101821;-72
2022/11/29 03:09:54;;;;;;;;;43.67;31.33;;;;;-4.12;91.11;98870.25;4961277;28;101970;-72
2022/11/29 03:12:43;;;;;;;;;35.67;23.67;;;;;-4.08;91.87;98871.75;4962271;28;107738;-72
2022/11/29 03:15:28;;;;;;;;;27.67;23.67;;;;;-4.07;90.31;98878.72;4961663;28;103099;-72
2022/11/29 03:18:24;;;;;;;;;19.00;18.00;;;;;-4.09;89.85;98875.31;4962953;28;101905;-72
2022/11/29 03:21:09;;;;;;;;;47.50;37.50;;;;;-4.26;88.12;98867.69;4918309;28;101648;-72
2022/11/29 03:23:42;;;;;;;;;32.33;27.33;;;;;-4.28;88.93;98877.53;4947224;28;108481;-72
2022/11/29 03:26:18;;;;;;;;;32.33;21.67;;;;;-4.31;89.16;98877.72;4944499;28;102133;-72
2022/11/29 03:29:10;;;;;;;;;27.67;17.33;;;;;-4.30;88.67;98882.06;4945998;28;109360;-72
2022/11/29 03:32:12;;;;;;;;;44.50;37.25;;;;;-4.41;88.23;98877.47;4946900;28;101819;-73
2022/11/29 03:34:58;;;;;;;;;68.00;48.50;;;;;-4.55;89.78;98878.38;4893158;28;107932;-72
2022/11/29 03:37:37;;;;;;;;;52.75;39.50;;;;;-4.61;89.64;98875.31;4945985;28;102408;-72
2022/11/29 03:40:20;;;;;;;;;51.50;45.00;;;;;-4.66;89.89;98883.50;4944676;28;101924;-76
2022/11/29 03:43:11;;;;;;;;;55.50;40.50;;;;;-4.75;90.46;98857.75;4942845;28;101837;-73
2022/11/29 03:45:47;;;;;;;;;42.75;32.00;;;;;-4.62;89.47;98885.00;4938558;28;108446;-73
2022/11/29 03:48:28;;;;;;;;;46.75;43.25;;;;;-4.59;91.51;98892.72;4943429;28;102023;-73
2022/11/29 03:51:10;;;;;;;;;50.50;46.00;;;;;-4.57;92.73;98882.91;4946140;28;101493;-73
2022/11/29 03:53:46;;;;;;;;;51.25;41.25;;;;;-4.53;92.39;98894.97;4945613;28;101792;-73
2022/11/29 03:56:26;;;;;;;;;55.75;42.50;;;;;-4.48;92.54;98893.81;4942627;28;103438;-73
2022/11/29 03:59:07;;;;;;;;;42.50;37.50;;;;;-4.58;91.71;98875.09;4942008;28;101873;-73
2022/11/29 04:02:08;;;;;;;;;69.25;52.00;;;;;-4.59;90.64;98886.59;4938834;28;101786;-73
2022/11/29 04:05:13;;;;;;;;;95.00;68.75;;;;;-4.69;92.05;98881.09;4946147;28;102032;-74
2022/11/29 04:08:24;;;;;;;;;91.00;64.50;;;;;-4.80;93.05;98873.00;4944053;28;107844;-73
2022/11/29 04:11:35;;;;;;;;;63.25;52.00;;;;;-4.73;91.66;98879.59;4944398;28;101821;-73
2022/11/29 04:14:30;;;;;;;;;59.50;42.75;;;;;-4.64;91.28;98888.69;4933005;28;102765;-73
2022/11/29 04:17:38;;;;;;;;;64.25;51.00;;;;;-4.71;91.01;98897.94;4938200;28;102148;-74
2022/11/29 04:20:11;;;;;;;;;86.00;60.75;;;;;-4.73;91.38;98908.59;4915370;28;107899;-73
2022/11/29 04:22:38;;;;;;;;;63.25;51.00;;;;;-4.73;91.41;98899.84;4963005;28;101816;-73
2022/11/29 04:25:32;;;;;;;;;87.25;66.00;;;;;-4.79;90.65;98911.63;4966623;28;101793;-73
2022/11/29 04:28:12;;;;;;;;;84.75;67.25;;;;;-4.89;90.65;98913.16;4965760;28;101812;-73
2022/11/29 04:31:24;;;;;;;;;83.50;64.25;;;;;-4.96;90.43;98909.22;4962265;28;107747;-71
2022/11/29 04:34:28;;;;;;;;;77.50;57.25;;;;;-4.94;90.55;98907.31;4960217;28;106485;-71
2022/11/29 04:37:26;;;;;;;;;79.25;57.75;;;;;-4.99;90.65;98909.41;4960269;28;101708;-72
2022/11/29 04:40:34;;;;;;;;;22.75;2.50;;;;;-4.99;91.18;98910.25;4959005;28;101820;-72
2022/11/29 04:43:33;;;;;;;;;81.50;63.25;;;;;-5.03;92.33;98910.53;4964091;28;107687;-71
2022/11/29 04:46:22;;;;;;;;;80.50;57.00;;;;;-4.96;92.64;98914.50;4958619;28;101822;-72
2022/11/29 04:49:08;;;;;;;;;63.25;47.00;;;;;-4.87;92.82;98918.34;4961942;28;101925;-71
2022/11/29 04:51:56;;;;;;;;;63.00;48.00;;;;;-4.85;92.32;98925.19;4941066;28;101911;-72
2022/11/29 04:54:51;;;;;;;;;64.50;45.00;;;;;-4.88;91.36;98920.13;4963664;28;103365;-72
2022/11/29 04:57:30;;;;;;;;;53.25;42.00;;;;;-4.87;91.47;98923.59;4945173;28;101898;-71
2022/11/29 05:00:21;;;;;;;;;41.75;37.00;;;;;-4.80;91.86;98923.13;4963775;28;101964;-72
2022/11/29 05:03:05;;;;;;;;;48.25;40.75;;;;;-4.83;91.20;98925.97;4961070;28;101816;-72
2022/11/29 05:06:07;;;;;;;;;73.00;52.00;;;;;-4.89;92.63;98931.59;4961228;28;108004;-72
2022/11/29 05:08:49;;;;;;;;;89.25;67.75;;;;;-4.93;92.99;98938.03;4962871;28;101853;-72
2022/11/29 05:11:26;;;;;;;;;90.00;67.00;;;;;-4.91;93.38;98940.56;4966655;28;101988;-72
2022/11/29 05:14:11;;;;;;;;;98.00;70.50;;;;;-4.92;93.41;98937.09;4965562;28;103334;-72
2022/11/29 05:17:12;;;;;;;;;82.00;60.25;;;;;-4.87;93.63;98937.66;4958546;28;107891;-72
2022/11/29 05:20:09;;;;;;;;;67.00;51.25;;;;;-4.81;93.79;98931.97;4959993;28;101917;-72
2022/11/29 05:23:00;;;;;;;;;61.25;45.50;;;;;-4.71;93.98;98937.50;4967993;28;101664;-73
2022/11/29 05:25:47;;;;;;;;;59.50;48.25;;;;;-4.64;94.08;98939.66;4965487;28;102513;-72
2022/11/29 05:28:28;;;;;;;;;44.00;36.50;;;;;-4.56;94.67;98950.56;4963463;28;107668;-73
2022/11/29 05:31:00;;;;;;;;;51.50;42.00;;;;;-4.50;94.56;98942.25;4965143;28;102191;-72
2022/11/29 05:33:46;;;;;;;;;44.25;39.25;;;;;-4.44;94.00;98950.72;4966769;28;101966;-74
2022/11/29 05:36:38;;;;;;;;;48.50;36.25;;;;;-4.41;93.53;98956.63;4968017;28;103167;-72
2022/11/29 05:39:14;;;;;;;;;30.75;26.00;;;;;-4.37;92.97;98952.88;4967527;28;107929;-73
2022/11/29 05:42:05;;;;;;;;;22.33;18.67;;;;;-4.33;93.34;98956.16;4964500;28;106194;-72
2022/11/29 05:44:40;;;;;;;;;15.33;12.67;;;;;-4.34;91.73;98959.75;4966127;28;101597;-72
2022/11/29 05:47:09;;;;;;;;;10.00;9.00;;;;;-4.34;91.37;98965.00;4964536;28;101720;-72
2022/11/29 05:49:43;;;;;;;;;47.00;36.50;;;;;-4.42;89.61;98972.59;4967229;28;103347;-72
2022/11/29 05:52:49;;;;;;;;;62.75;47.00;;;;;-4.60;90.09;98970.19;4966803;28;102267;-73
2022/11/29 05:55:21;;;;;;;;;62.00;43.00;;;;;-4.62;91.18;98972.06;4947152;28;101761;-73
2022/11/29 05:58:29;;;;;;;;;79.50;60.00;;;;;-4.76;91.80;98958.03;4964136;28;101487;-72
2022/11/29 06:01:02;;;;;;;;;37.50;31.00;;;;;-4.59;91.41;98973.66;4965392;28;107686;-72
2022/11/29 06:03:38;;;;;;;;;34.50;30.00;;;;;-4.70;90.32;98957.66;4965849;28;102110;-72
2022/11/29 06:06:14;;;;;;;;;33.50;27.00;;;;;-4.54;90.42;98984.75;4963090;28;101862;-72
2022/11/29 06:08:56;;;;;;;;;26.33;23.33;;;;;-4.59;89.44;98989.47;4968584;28;103823;-73
2022/11/29 06:11:29;;;;;;;;;70.00;54.00;;;;;-4.77;90.86;98982.75;4948320;28;103313;-73
2022/11/29 06:14:40;;;;;;;;;76.75;60.00;;;;;-4.81;92.28;98992.63;4965343;28;102207;-73
2022/11/29 06:17:38;;;;;;;;;94.50;71.50;;;;;-4.75;92.97;98994.03;4945862;28;101686;-73
2022/11/29 06:20:36;;;;;;;;;60.75;45.00;;;;;-4.68;92.19;98998.81;4964578;28;101887;-72
2022/11/29 06:23:15;;;;;;;;;68.25;53.75;;;;;-4.71;92.71;99003.44;4934503;28;107159;-72
2022/11/29 06:25:52;;;;;;;;;70.00;53.00;;;;;-4.69;92.62;99002.44;4965546;28;102196;-72
2022/11/29 06:28:40;;;;;;;;;73.75;50.00;;;;;-4.68;93.21;98998.81;4969677;28;101616;-72
2022/11/29 06:31:25;;;;;;;;;69.00;53.50;;;;;-4.88;92.36;98974.66;4960705;28;101750;-72
2022/11/29 06:34:22;;;;;;;;;67.25;50.50;;;;;-4.69;92.30;99004.22;4947741;28;103369;-72
2022/11/29 06:37:11;;;;;;;;;65.00;51.00;;;;;-4.69;92.19;98999.78;4960661;28;101973;-72
2022/11/29 06:39:38;;;;;;;;;70.75;54.00;;;;;-4.74;92.61;98982.53;4965812;28;101978;-72
2022/11/29 06:42:05;;;;;;;;;51.25;45.25;;;;;-4.63;92.82;98991.47;4966551;28;101930;-72
2022/11/29 06:44:32;;;;;;;;;63.25;42.00;;;;;-4.58;92.03;98999.09;4969767;28;103306;-71
2022/11/29 06:47:12;;;;;;;;;42.25;33.25;;;;;-4.47;92.22;99014.25;4971196;28;102077;-73
2022/11/29 06:49:48;;;;;;;;;54.75;44.50;;;;;-4.51;92.18;99001.25;4968921;28;101813;-73
2022/11/29 06:52:46;;;;;;;;;64.25;51.50;;;;;-4.71;93.40;98954.19;4961876;28;101672;-73
2022/11/29 06:55:24;;;;;;;;;55.50;41.00;;;;;-4.26;92.49;99015.50;4950870;28;108109;-73
2022/11/29 06:58:00;;;;;;;;;42.00;35.50;;;;;-4.14;93.14;99017.34;4965199;28;101801;-73
2022/11/29 07:00:54;;;;;;;;;57.75;43.75;;;;;-4.05;93.44;99014.13;4964984;28;101687;-73
2022/11/29 07:03:30;;;;;;;;;57.25;45.00;;;;;-4.02;92.50;99010.44;4958057;28;101963;-73
2022/11/29 07:05:57;;;;;;;;;51.75;41.50;;;;;-3.97;93.10;99014.50;4970645;28;107909;-72
2022/11/29 07:08:25;;;;;;;;;70.00;49.00;;;;;-3.97;93.33;99011.84;4963959;28;102115;-72
2022/11/29 07:10:54;;;;;;;;;70.00;55.50;;;;;-4.21;92.85;98961.47;4963678;28;101963;-73
2022/11/29 07:13:22;;;;;;;;;68.25;50.00;;;;;-3.77;92.85;99019.28;4961685;28;102981;-73
2022/11/29 07:16:00;;;;;;;;;56.75;41.25;;;;;-3.68;93.23;99029.25;4955039;28;103352;-74
2022/11/29 07:18:39;;;;;;;;;54.50;45.00;;;;;-3.62;92.89;99031.50;4964020;28;101845;-74
2022/11/29 07:21:48;;;;;;;;;48.75;39.75;;;;;-3.55;92.88;99029.28;4950962;28;101501;-73
2022/11/29 07:24:28;;;;;;;;;53.25;39.50;;;;;-3.52;92.84;99036.16;4958777;28;102119;-74
2022/11/29 07:27:26;;;;;;;;;39.33;33.00;;;;;-3.39;92.13;99040.53;4961683;28;103705;-73
2022/11/29 07:30:26;;;;;;;;;34.00;21.50;;;;;-3.36;93.10;99042.09;4960246;28;101938;-74
2022/11/29 07:33:05;;;;;;;;;43.50;38.75;;;;;-3.31;92.64;99045.28;4959405;28;101531;-74
2022/11/29 07:35:37;;;;;;;;;36.67;31.00;;;;;-3.21;92.82;99039.28;4968967;28;101770;-73
2022/11/29 07:38:33;;;;;;;;;36.67;26.33;;;;;-3.10;90.89;99041.16;4964510;28;103373;-72
2022/11/29 07:41:16;;;;;;;;;34.33;22.00;;;;;-3.05;90.73;99028.47;4967090;28;101842;-72
2022/11/29 07:44:08;;;;;;;;;31.00;23.67;;;;;-2.93;90.27;99043.53;4967134;28;101847;-72
2022/11/29 07:46:35;;;;;;;;;48.00;32.67;;;;;-2.96;91.55;99045.53;4955488;28;101688;-72
2022/11/29 07:49:03;;;;;;;;;32.25;26.50;;;;;-2.87;91.26;99043.09;4968660;28;103480;-72
2022/11/29 07:51:31;;;;;;;;;70.00;49.25;;;;;-3.13;90.57;98998.22;4967920;28;101765;-72
2022/11/29 07:53:58;;;;;;;;;71.50;55.00;;;;;-2.92;91.05;99033.78;4969144;28;101764;-74
2022/11/29 07:56:25;;;;;;;;;65.75;52.25;;;;;-2.83;92.44;99031.34;4952510;28;101981;-72
2022/11/29 07:58:52;;;;;;;;;57.00;44.75;;;;;-2.77;90.93;99036.22;4968343;28;103330;-72
2022/11/29 08:01:19;;;;;;;;;41.00;32.67;;;;;-2.53;91.00;99040.72;4968045;28;101809;-72
2022/11/29 08:03:46;;;;;;;;;68.25;52.25;;;;;-2.73;91.28;99032.38;4956021;28;102027;-72
2022/11/29 08:06:13;;;;;;;;;70.75;53.00;;;;;-2.56;89.86;99041.78;4964771;28;101575;-72
2022/11/29 08:08:40;;;;;;;;;67.25;51.25;;;;;-2.49;90.38;99039.56;4963990;28;103400;-72
2022/11/29 08:11:12;;;;;;;;;72.25;53.00;;;;;-2.44;89.42;99050.69;4969403;28;101675;-72
2022/11/29 08:13:39;;;;;;;;;71.00;52.50;;;;;-2.34;91.04;99044.59;4970053;28;102038;-73
2022/11/29 08:16:07;;;;;;;;;78.25;56.75;;;;;-2.36;89.67;99048.31;4968623;28;102617;-72
2022/11/29 08:18:37;;;;;;;;;72.25;56.25;;;;;-2.30;89.53;99043.41;4969051;28;103560;-72
2022/11/29 08:21:06;;;;;;;;;56.75;48.00;;;;;-2.14;89.40;99040.53;4962620;28;101781;-72
2022/11/29 08:23:33;;;;;;;;;48.00;43.33;;;;;-2.04;90.29;99032.75;4941803;28;101463;-73
2022/11/29 08:26:01;;;;;;;;;44.00;36.00;;;;;-1.85;89.54;99055.13;4964548;28;101704;-73
2022/11/29 08:28:28;;;;;;;;;72.75;54.75;;;;;-1.93;89.06;99052.22;4951602;28;108027;-73
2022/11/29 08:31:05;;;;;;;;;69.25;49.00;;;;;-1.87;88.73;99045.63;4953323;28;101826;-73
2022/11/29 08:33:37;;;;;;;;;51.67;44.00;;;;;-1.78;89.70;99052.03;4946133;28;102397;-71
2022/11/29 08:36:12;;;;;;;;;51.67;41.67;;;;;-1.62;88.77;99055.28;4948102;28;101700;-72
2022/11/29 08:38:39;;;;;;;;;68.75;49.50;;;;;-1.62;89.61;99061.41;4944411;28;102817;-72
2022/11/29 08:41:09;;;;;;;;;61.00;47.33;;;;;-1.52;89.84;99046.50;4955340;28;101851;-73
2022/11/29 08:43:36;;;;;;;;;58.33;45.33;;;;;-1.37;87.92;99057.78;4959564;28;101846;-73
2022/11/29 08:46:03;;;;;;;;;75.75;57.00;;;;;-1.44;87.31;99045.94;4950345;28;102857;-73
2022/11/29 08:48:30;;;;;;;;;48.00;45.33;;;;;-1.22;88.62;99053.97;4969113;28;103463;-73
2022/11/29 08:50:57;;;;;;;;;55.00;42.00;;;;;-1.11;87.29;99056.66;4972321;28;101690;-71
2022/11/29 08:53:45;;;;;;;;;36.33;31.33;;;;;-1.02;87.67;99050.63;4923485;28;101626;-72
2022/11/29 08:56:15;;;;;;;;;80.25;60.75;;;;;-1.05;85.82;99060.66;4931990;28;104201;-72
2022/11/29 08:59:03;;;;;;;;;78.50;57.75;;;;;-1.08;88.12;99060.88;4941288;28;109222;-71
2022/11/29 09:01:30;;;;;;;;;72.50;56.00;;;;;-1.08;86.82;99048.44;4939197;28;102333;-72
2022/11/29 09:04:05;;;;;;;;;69.00;53.33;;;;;-1.05;86.00;99031.47;4946802;28;102374;-72
2022/11/29 09:06:37;;;;;;;;;64.25;53.25;;;;;-0.79;86.41;99050.66;4959568;28;103029;-71
2022/11/29 09:09:05;;;;;;;;;74.00;53.33;;;;;-0.68;86.07;99061.31;4950063;28;103368;-72
2022/11/29 09:11:34;;;;;;;;;76.25;52.00;;;;;-0.58;86.79;99054.28;4941175;28;101724;-70
2022/11/29 09:14:04;;;;;;;;;71.00;57.25;;;;;-0.55;85.91;99052.28;4940018;28;101980;-72
2022/11/29 09:16:36;;;;;;;;;86.00;58.50;;;;;-0.66;86.01;99060.22;4945011;28;101669;-72
2022/11/29 09:19:04;;;;;;;;;79.25;59.75;;;;;-0.54;85.81;99042.50;4964866;28;108466;-71
2022/11/29 09:21:33;;;;;;;;;63.50;43.25;;;;;-0.52;86.64;99044.06;4927107;28;101764;-71
2022/11/29 09:24:04;;;;;;;;;80.50;59.25;;;;;-0.36;85.63;99054.28;4951296;28;102110;-71
2022/11/29 09:26:33;;;;;;;;;90.75;69.50;;;;;-0.48;85.43;99039.34;4937220;28;101673;-73
2022/11/29 09:29:02;;;;;;;;;79.75;60.50;;;;;-0.30;86.32;99047.66;4925730;28;108102;-73
2022/11/29 09:31:31;;;;;;;;;68.33;50.00;;;;;0.04;86.69;99051.97;4966307;28;101996;-73
2022/11/29 09:33:58;;;;;;;;;67.33;47.67;;;;;0.19;84.84;99049.88;4962569;28;102137;-73
2022/11/29 09:36:25;;;;;;;;;71.67;52.00;;;;;0.33;84.50;99053.09;4964767;28;102015;-73
2022/11/29 09:39:01;;;;;;;;;76.67;56.33;;;;;0.32;83.48;99053.22;4965755;28;103334;-72
2022/11/29 09:42:08;;;;;;;;;47.00;38.67;;;;;0.39;83.24;99049.94;4951161;28;101870;-72
2022/11/29 09:45:10;;;;;;;;;67.00;50.33;;;;;0.42;83.62;99047.03;4946065;28;101517;-72
2022/11/29 09:48:06;;;;;;;;;74.00;51.67;;;;;0.56;83.61;99050.34;4939232;28;101685;-72
2022/11/29 09:50:43;;;;;;;;;50.33;40.00;;;;;0.69;83.65;99032.38;4948890;28;107918;-72
2022/11/29 09:53:29;;;;;;;;;57.33;44.33;;;;;0.77;82.49;99048.56;4957287;28;101860;-72
2022/11/29 09:56:24;;;;;;;;;45.00;37.67;;;;;0.94;83.29;99041.84;4932659;28;101847;-72
2022/11/29 09:59:00;;;;;;;;;61.33;44.00;;;;;0.88;82.52;99049.34;4951109;28;101828;-72
2022/11/29 10:01:36;;;;;;;;;67.00;51.33;;;;;0.87;82.05;99036.16;4940625;28;107880;-73
2022/11/29 10:04:11;;;;;;;;;52.33;43.67;;;;;0.97;83.09;99038.91;4953397;28;101974;-71
2022/11/29 10:06:42;;;;;;;;;40.67;31.67;;;;;1.22;82.84;99049.13;4933346;28;102692;-73
2022/11/29 10:09:36;;;;;;;;;43.67;32.33;;;;;1.34;81.40;99040.97;4940417;28;101804;-73
2022/11/29 10:12:09;;;;;;;;;53.00;42.33;;;;;1.39;81.90;99040.56;4948097;28;106825;-72
2022/11/29 10:14:51;;;;;;;;;63.67;46.33;;;;;1.39;80.60;99039.72;4961478;28;101960;-72
2022/11/29 10:17:39;;;;;;;;;61.67;46.00;;;;;1.43;80.15;99034.00;4959569;28;101580;-73
2022/11/29 10:20:17;;;;;;;;;54.33;41.00;;;;;1.54;80.94;99039.22;4919352;28;102076;-73
2022/11/29 10:22:53;;;;;;;;;48.67;37.00;;;;;1.74;80.61;99022.34;4925604;28;103349;-72
2022/11/29 10:25:45;;;;;;;;;52.67;42.00;;;;;1.68;79.81;99020.19;4945475;28;101845;-73
2022/11/29 10:28:16;;;;;;;;;61.33;47.33;;;;;1.67;79.49;99021.16;4939320;28;101949;-73
2022/11/29 10:30:43;;;;;;;;;42.00;38.33;;;;;1.87;80.41;99022.09;4951063;28;101948;-73
2022/11/29 10:33:28;;;;;;;;;40.33;32.67;;;;;2.06;79.88;99032.81;4950448;28;103535;-73
2022/11/29 10:35:59;;;;;;;;;26.33;24.33;;;;;2.19;78.08;99021.88;4937334;28;101906;-73
2022/11/29 10:38:26;;;;;;;;;39.00;32.00;;;;;2.22;78.11;99011.78;4950027;28;101627;-73
2022/11/29 10:41:16;;;;;;;;;45.00;38.67;;;;;2.16;78.07;99024.84;4930239;28;101814;-73
2022/11/29 10:43:44;;;;;;;;;54.00;42.00;;;;;1.87;77.63;98994.59;4940957;28;108059;-73
2022/11/29 10:46:32;;;;;;;;;48.67;37.00;;;;;2.10;77.37;98996.88;4949912;28;101814;-72
2022/11/29 10:49:05;;;;;;;;;30.33;26.33;;;;;2.42;77.61;99017.97;4949944;28;101940;-73
2022/11/29 10:51:33;;;;;;;;;48.67;38.33;;;;;2.30;76.39;99019.06;4933825;28;103948;-72
2022/11/29 10:54:25;;;;;;;;;40.33;32.00;;;;;2.48;77.15;99020.06;4951083;28;103298;-74
2022/11/29 10:56:56;;;;;;;;;26.33;20.67;;;;;2.48;74.69;99017.41;4946982;28;101668;-72
2022/11/29 10:59:25;;;;;;;;;42.00;37.33;;;;;2.56;74.46;99017.56;4938316;28;101846;-72
2022/11/29 11:01:53;;;;;;;;;46.00;34.67;;;;;2.51;74.56;99010.97;4950824;28;103708;-73
2022/11/29 11:04:36;;;;;;;;;51.33;40.33;;;;;2.52;75.81;99013.47;4939963;28;103273;-72
2022/11/29 11:07:05;;;;;;;;;22.00;18.00;;;;;2.79;75.39;99009.28;4944840;28;101683;-71
2022/11/29 11:09:41;;;;;;;;;30.00;23.67;;;;;2.91;73.81;99008.13;4946446;28;101994;-73
2022/11/29 11:12:14;;;;;;;;;27.50;23.25;;;;;2.96;73.19;99020.06;4945768;28;102632;-73
2022/11/29 11:14:41;;;;;;;;;21.25;10.25;;;;;3.04;73.09;99014.00;4944741;28;103427;-72
2022/11/29 11:17:29;;;;;;;;;23.25;20.50;;;;;3.13;72.20;99013.97;4945412;28;101705;-72
2022/11/29 11:20:00;;;;;;;;;46.25;35.00;;;;;3.19;71.48;99019.75;4951834;28;101924;-73
2022/11/29 11:22:28;;;;;;;;;40.00;29.75;;;;;3.20;72.35;99014.22;4943959;28;101904;-73
2022/11/29 11:25:05;;;;;;;;;29.25;25.00;;;;;3.26;71.84;99018.16;4951372;28;102701;-73
2022/11/29 11:27:38;;;;;;;;;26.25;23.75;;;;;3.29;71.20;99023.25;4968792;28;101666;-73
2022/11/29 11:30:20;;;;;;;;;24.25;24.25;;;;;3.29;71.98;99021.38;4958718;28;101802;-72
2022/11/29 11:33:20;;;;;;;;;29.00;24.25;;;;;3.09;71.92;98982.34;4969207;28;101946;-73
2022/11/29 11:36:07;;;;;;;;;36.50;28.00;;;;;3.29;72.22;99025.91;4950607;28;107082;-73
2022/11/29 11:38:36;;;;;;;;;27.00;24.25;;;;;3.20;70.48;99026.78;4960215;28;101844;-72
2022/11/29 11:41:06;;;;;;;;;30.00;26.25;;;;;3.13;70.83;99031.84;4960255;28;101860;-72
2022/11/29 11:43:33;;;;;;;;;37.50;27.75;;;;;2.97;71.18;99032.41;4970047;28;103880;-70
2022/11/29 11:46:00;;;;;;;;;29.50;24.00;;;;;3.01;72.34;99027.66;4944199;28;103336;-73
2022/11/29 11:48:28;;;;;;;;;27.25;22.00;;;;;3.07;72.20;99019.88;4962348;28;102068;-73
2022/11/29 11:50:58;;;;;;;;;23.00;20.25;;;;;3.10;71.89;99024.13;4959068;28;102017;-73
2022/11/29 11:53:36;;;;;;;;;17.25;13.00;;;;;3.29;72.92;99012.56;4970056;28;101852;-73
2022/11/29 11:56:12;;;;;;;;;19.50;14.25;;;;;3.05;71.20;99010.34;4966146;28;107899;-71
2022/11/29 11:58:55;;;;;;;;;13.50;11.00;;;;;3.15;71.09;99016.53;4958518;28;101913;-73
2022/11/29 12:01:38;;;;;;;;;12.25;9.75;;;;;3.23;71.15;99013.97;4938929;28;102029;-73
2022/11/29 12:04:16;;;;;;;;;7.00;6.00;;;;;3.26;70.94;99012.81;4967030;28;102104;-73
2022/11/29 12:06:59;;;;;;;;;7.00;6.00;;;;;3.33;70.09;99020.09;4967907;28;103345;-73
2022/11/29 12:09:54;;;;;;;;;13.50;11.75;;;;;3.01;71.67;99020.47;4967919;28;101766;-73